Airfield :
LOGIN :

Register | Disclaimer

   EN    FR    IT 

 










Legend :    VFR   Marginal VFR   IFR   Intensive IFR   Very Intensive IFR
Visi :
Ceiling :
>= 8 km
>= 3000ft
5 to 8 km
1000 to 3000 ft
1500m to 5 km
500 to 1000 ft
800 to 1500m
200 to 500 ft
< 800m
< 200 ft
Symbols :   Thunderstorms  Fog  Heavy snow  Heavy precipitations  Wind > 20 kt
SIGMETs :     Misc.  Thunderstorms  Icing  Turbulence  Mountain Waves  Volcanic Ashes







- Airport Elevation : 177 ft
- IATA code : AYT


LTAI - Antalya

CURRENT METAR :
  • 170320Z 33010KT CAVOK 08/M00 Q1019 NOSIG RMK RWY18C 33006KT RWY36R 35007KT RWY18L 01004KT 340V040

EXPIRED METARs :
  • 170250Z 35005KT 320V020 CAVOK 07/00 Q1019 NOSIG RMK RWY18C 33005KT RWY36R 34008KT RWY18L 35003KT 320V020
  • 170220Z 33009KT CAVOK 09/M00 Q1019 NOSIG RMK RWY18C 34007KT RWY36R 36006KT RWY18L 02004KT 340V050
  • 170150Z 34006KT CAVOK 07/01 Q1019 NOSIG
  • 170120Z 34007KT CAVOK 08/01 Q1019 NOSIG RMK RWY18C 34006KT RWY36R 35008KT RWY18L 02003KT 350V050
  • 170050Z 33009KT CAVOK 09/01 Q1020 NOSIG RMK RWY18C 34006KT RWY36R 35008KT RWY18L 36003KT 320V020

TAF TAF LTAI
Valid from the 17 at 00:00 until the 18 at 00:00 UTC


162240Z 1700/1724 34007KT CAVOK
BECMG 1704/1707 FEW030
BECMG 1709/1711 18010KT
BECMG 1714/1718 34005KT CAVOK
No reported NOTAMs for that airfield.



MET'MAP, your aeronautical weather chart ! - Copyright ORBIFLY December 2007 - Disclaimer

ORBIFLY MET'MAP TEAM :

Programming & Development : Alexandra Zaïnal
Concept & Development : Baudouin d'Aumeries
Co-Development & Prog : Marc-Olivier Méhu
Technical & hardware support : Manuel Goepfert

Contact : metmap@orbifly.com




SOURCES & CREDITS :

   NOAA